Time;durP1;ratioP1;P1;durP2;ratioP2;P2;SDS_P1;SDS_P2;PMS_P1;PMS_P2;Temp;Humidity;BMP_temperature;BMP_pressure;BME280_temperature;BME280_humidity;BME280_pressure;Samples;Min_cycle;Max_cycle;Signal;HPM_P1;HPM_P2
2022/12/05 00:01:12;;;;;;;2.57;2.53;;;17.30;66.80;;;;;;5115637;27;43553;-70
2022/12/05 00:03:40;;;;;;;2.40;2.40;;;17.30;66.70;;;;;;5098890;27;43438;-71
2022/12/05 00:06:08;;;;;;;2.20;2.20;;;17.20;66.60;;;;;;5061424;27;1102646;-72
2022/12/05 00:08:36;;;;;;;2.37;2.27;;;17.20;66.70;;;;;;5105407;27;43653;-70
2022/12/05 00:11:04;;;;;;;2.40;2.40;;;17.20;67.10;;;;;;5111119;27;43444;-71
2022/12/05 00:13:33;;;;;;;2.43;2.33;;;17.20;66.80;;;;;;5104273;27;43432;-71
2022/12/05 00:16:01;;;;;;;2.30;2.30;;;17.20;66.90;;;;;;5107047;27;43533;-70
2022/12/05 00:18:29;;;;;;;2.50;2.50;;;17.20;66.90;;;;;;5093909;27;46230;-70
2022/12/05 00:20:57;;;;;;;2.33;2.33;;;17.10;66.80;;;;;;5100245;27;43465;-70
2022/12/05 00:23:25;;;;;;;2.43;2.43;;;17.10;66.90;;;;;;5111893;27;43468;-71
2022/12/05 00:25:53;;;;;;;2.37;2.33;;;17.10;67.20;;;;;;5102382;27;43911;-71
2022/12/05 00:28:21;;;;;;;2.40;2.40;;;17.10;67.10;;;;;;5104099;27;43901;-70
2022/12/05 00:30:50;;;;;;;2.43;2.43;;;17.10;67.10;;;;;;5114347;27;43429;-72
2022/12/05 00:33:18;;;;;;;2.43;2.33;;;17.10;67.10;;;;;;5114977;27;43489;-72
2022/12/05 00:35:46;;;;;;;2.27;2.27;;;17.10;67.00;;;;;;5122797;27;43601;-71
2022/12/05 00:38:14;;;;;;;2.40;2.40;;;17.10;67.00;;;;;;5117982;27;43598;-71
2022/12/05 00:40:42;;;;;;;2.17;2.17;;;17.10;67.20;;;;;;5111459;27;44032;-70
2022/12/05 00:43:10;;;;;;;2.43;2.40;;;17.10;67.50;;;;;;5112624;27;43427;-70
2022/12/05 00:45:38;;;;;;;2.63;2.60;;;17.10;67.30;;;;;;5114808;27;44023;-71
2022/12/05 00:48:07;;;;;;;2.40;2.40;;;17.20;66.90;;;;;;5108532;27;44172;-70
2022/12/05 00:50:35;;;;;;;2.33;2.33;;;17.20;66.50;;;;;;5121199;27;43449;-71
2022/12/05 00:53:03;;;;;;;2.40;2.40;;;17.20;66.60;;;;;;5115237;27;43487;-71
2022/12/05 00:55:31;;;;;;;2.37;2.37;;;17.20;66.70;;;;;;5117727;27;43477;-71
2022/12/05 00:57:59;;;;;;;2.50;2.40;;;17.20;67.00;;;;;;5115857;27;43843;-70
2022/12/05 01:00:27;;;;;;;2.23;2.23;;;17.20;66.80;;;;;;5124138;27;43465;-70
2022/12/05 01:02:55;;;;;;;2.03;2.03;;;17.20;66.80;;;;;;5119405;27;43761;-71
2022/12/05 01:05:24;;;;;;;1.93;1.93;;;17.20;66.90;;;;;;5110864;27;43976;-71
2022/12/05 01:07:52;;;;;;;2.63;2.53;;;17.20;67.00;;;;;;5106845;27;47185;-71
2022/12/05 01:10:20;;;;;;;2.20;2.20;;;17.10;66.90;;;;;;5112883;27;43434;-72
2022/12/05 01:12:48;;;;;;;2.17;2.17;;;17.10;67.10;;;;;;5124236;27;43851;-72
2022/12/05 01:15:16;;;;;;;2.20;2.20;;;17.10;67.40;;;;;;5124220;27;43490;-72
2022/12/05 01:17:44;;;;;;;2.00;2.00;;;17.20;67.20;;;;;;5104276;27;43951;-71
2022/12/05 01:20:12;;;;;;;2.60;2.60;;;17.20;66.70;;;;;;5096895;27;43496;-72
2022/12/05 01:22:42;;;;;;;2.10;2.10;;;17.20;66.70;;;;;;5103641;27;43505;-72
2022/12/05 01:25:10;;;;;;;2.20;2.20;;;17.20;66.70;;;;;;5101885;27;43628;-73
2022/12/05 01:27:38;;;;;;;2.40;2.40;;;17.20;66.80;;;;;;5100370;27;43941;-73
2022/12/05 01:30:07;;;;;;;2.00;2.00;;;17.10;67.20;;;;;;5100413;27;43546;-72
2022/12/05 01:32:35;;;;;;;2.20;2.20;;;17.10;66.90;;;;;;5100647;27;43817;-72
2022/12/05 01:35:03;;;;;;;2.10;2.10;;;17.10;66.90;;;;;;5101314;27;43619;-71
2022/12/05 01:37:31;;;;;;;2.37;2.37;;;17.10;66.90;;;;;;5103859;27;44032;-71
2022/12/05 01:40:00;;;;;;;2.30;2.30;;;17.10;66.90;;;;;;5100519;27;45018;-72
2022/12/05 01:42:28;;;;;;;1.83;1.83;;;17.10;66.90;;;;;;5105794;27;43449;-73
2022/12/05 01:45:02;;;;;;;2.00;2.00;;;17.10;67.20;;;;;;5098155;27;43991;-71
2022/12/05 01:47:31;;;;;;;2.10;2.10;;;17.10;67.40;;;;;;5106941;27;43897;-72
2022/12/05 01:49:59;;;;;;;2.13;2.13;;;17.20;67.10;;;;;;5091471;27;45035;-70
2022/12/05 01:52:28;;;;;;;2.00;2.00;;;17.20;66.70;;;;;;5108281;27;43500;-70
2022/12/05 01:55:02;;;;;;;2.23;2.23;;;17.20;66.60;;;;;;5112063;27;43469;-72
2022/12/05 01:57:30;;;;;;;2.30;2.30;;;17.20;66.70;;;;;;5101540;27;43827;-72
2022/12/05 02:00:00;;;;;;;2.50;2.50;;;17.20;66.70;;;;;;5099184;27;43465;-70
2022/12/05 02:02:28;;;;;;;2.20;2.20;;;17.20;67.10;;;;;;5111156;27;44780;-70
2022/12/05 02:05:00;;;;;;;2.23;2.20;;;17.20;66.80;;;;;;5098235;27;43530;-71
2022/12/05 02:07:28;;;;;;;2.20;2.20;;;17.20;66.90;;;;;;5101078;27;43832;-71
2022/12/05 02:09:56;;;;;;;2.13;2.13;;;17.10;66.90;;;;;;5104965;27;43931;-71
2022/12/05 02:12:26;;;;;;;2.30;2.30;;;17.10;67.00;;;;;;5098107;27;43868;-72
2022/12/05 02:15:13;;;;;;;2.33;2.33;;;17.10;67.00;;;;;;5098922;27;43461;-71
2022/12/05 02:17:44;;;;;;;2.23;2.23;;;17.10;67.50;;;;;;5094845;27;43918;-71
2022/12/05 02:20:22;;;;;;;2.30;2.30;;;17.10;67.40;;;;;;5095992;27;44983;-71
2022/12/05 02:23:15;;;;;;;2.40;2.40;;;17.10;66.90;;;;;;5102051;27;43609;-70
2022/12/05 02:26:16;;;;;;;2.20;2.20;;;17.20;66.80;;;;;;5101865;27;43504;-71
2022/12/05 02:29:07;;;;;;;2.23;2.23;;;17.20;66.80;;;;;;5103400;27;43867;-71
2022/12/05 02:31:37;;;;;;;2.30;2.30;;;17.10;66.90;;;;;;5083898;27;43528;-72
2022/12/05 02:34:06;;;;;;;2.00;2.00;;;17.10;67.20;;;;;;5093488;27;43443;-73
2022/12/05 02:36:39;;;;;;;2.30;2.30;;;17.10;67.00;;;;;;5096327;27;43525;-71
2022/12/05 02:39:12;;;;;;;2.17;2.17;;;17.10;67.00;;;;;;5101322;27;43591;-70
2022/12/05 02:41:41;;;;;;;2.27;2.27;;;17.10;67.00;;;;;;5104766;27;44964;-72
2022/12/05 02:44:11;;;;;;;2.30;2.30;;;17.10;67.00;;;;;;5096183;27;43477;-73
2022/12/05 02:46:40;;;;;;;2.30;2.30;;;17.00;67.00;;;;;;5101761;27;43608;-71
2022/12/05 02:49:09;;;;;;;2.10;2.10;;;17.00;67.30;;;;;;5101173;27;43902;-73
2022/12/05 02:51:43;;;;;;;2.20;2.20;;;17.00;67.40;;;;;;5108141;27;43539;-71
2022/12/05 02:54:12;;;;;;;2.10;2.10;;;17.20;67.10;;;;;;5099504;27;43561;-71
2022/12/05 02:56:40;;;;;;;2.40;2.40;;;17.20;66.60;;;;;;5105230;27;43504;-72
2022/12/05 02:59:08;;;;;;;2.20;2.20;;;17.20;66.40;;;;;;5110441;27;43934;-74
2022/12/05 03:01:36;;;;;;;2.20;2.20;;;17.20;66.50;;;;;;5100939;27;43602;-71
2022/12/05 03:04:06;;;;;;;2.20;2.20;;;17.10;66.50;;;;;;5100884;27;43485;-71
2022/12/05 03:06:36;;;;;;;2.13;2.10;;;17.10;66.80;;;;;;5102684;27;43422;-71
2022/12/05 03:09:06;;;;;;;2.27;2.27;;;17.10;66.70;;;;;;5105289;27;43836;-71
2022/12/05 03:11:36;;;;;;;2.33;2.33;;;17.10;66.70;;;;;;5112458;27;43432;-70
2022/12/05 03:14:03;;;;;;;2.00;2.00;;;17.10;66.80;;;;;;5106602;27;43455;-71
2022/12/05 03:16:35;;;;;;;2.30;2.30;;;17.00;67.60;;;;;;5098234;27;43641;-71
2022/12/05 03:19:09;;;;;;;2.10;2.10;;;17.00;67.00;;;;;;5103539;27;43878;-76
2022/12/05 03:21:38;;;;;;;2.20;2.20;;;17.00;67.10;;;;;;5099581;27;43452;-73
2022/12/05 03:24:08;;;;;;;2.40;2.40;;;17.00;67.10;;;;;;5110966;27;43510;-70
2022/12/05 03:26:44;;;;;;;2.20;2.20;;;17.00;67.10;;;;;;5104380;27;43986;-71
2022/12/05 03:29:22;;;;;;;1.87;1.80;;;17.00;67.10;;;;;;5097698;27;44170;-71
2022/12/05 03:31:55;;;;;;;2.27;2.27;;;17.00;67.10;;;;;;5105878;27;43426;-71
2022/12/05 03:34:30;;;;;;;2.57;2.50;;;17.00;67.20;;;;;;5104390;27;43352;-72
2022/12/05 03:36:58;;;;;;;2.40;2.40;;;16.90;67.40;;;;;;5109925;27;43480;-72
2022/12/05 03:39:27;;;;;;;2.10;2.10;;;17.00;67.30;;;;;;5105473;27;43848;-72
2022/12/05 03:41:57;;;;;;;2.10;2.10;;;17.10;66.90;;;;;;5107511;27;43541;-70
2022/12/05 03:44:29;;;;;;;2.23;2.23;;;17.20;67.30;;;;;;5095460;27;43520;-72
2022/12/05 03:46:59;;;;;;;2.00;2.00;;;17.10;66.40;;;;;;5105847;27;43492;-73
2022/12/05 03:49:33;;;;;;;2.20;2.20;;;17.10;66.50;;;;;;5100837;27;43921;-71
2022/12/05 03:52:04;;;;;;;2.00;2.00;;;17.10;66.80;;;;;;5101410;27;43971;-70
2022/12/05 03:54:34;;;;;;;2.00;2.00;;;17.10;66.60;;;;;;5099264;27;43478;-71
2022/12/05 03:57:03;;;;;;;2.10;2.10;;;17.10;66.70;;;;;;5095788;27;43528;-70
2022/12/05 03:59:34;;;;;;;2.00;2.00;;;17.00;66.60;;;;;;5103811;27;46264;-71
2022/12/05 04:02:05;;;;;;;2.30;2.30;;;17.00;66.70;;;;;;5100609;27;43468;-71
2022/12/05 04:04:36;;;;;;;1.93;1.93;;;17.00;66.80;;;;;;5102553;27;43580;-70
2022/12/05 04:07:05;;;;;;;2.00;2.00;;;17.00;67.00;;;;;;5099262;27;43437;-72
2022/12/05 04:09:35;;;;;;;2.33;2.30;;;17.00;67.00;;;;;;5102168;27;43861;-71
2022/12/05 04:12:04;;;;;;;2.20;2.20;;;17.00;67.00;;;;;;5108401;27;43565;-71
2022/12/05 04:14:34;;;;;;;2.20;2.20;;;17.00;67.00;;;;;;5097615;27;43462;-73
2022/12/05 04:17:02;;;;;;;1.80;1.80;;;16.90;67.00;;;;;;5100373;27;44022;-72
2022/12/05 04:22:17;;;;;;;2.20;2.20;;;16.90;67.10;;;;;;5107919;27;43485;-71
2022/12/05 04:27:36;;;;;;;1.93;1.93;;;17.00;67.00;;;;;;5100052;27;43409;-70
2022/12/05 04:30:06;;;;;;;2.10;2.10;;;17.10;66.70;;;;;;5108001;27;44130;-71
2022/12/05 04:32:38;;;;;;;2.20;2.20;;;17.10;66.60;;;;;;5100919;27;43544;-70
2022/12/05 04:35:11;;;;;;;2.10;2.10;;;17.10;66.60;;;;;;5111232;27;44057;-71
2022/12/05 04:37:40;;;;;;;2.00;2.00;;;17.00;66.50;;;;;;5106247;27;43928;-73
2022/12/05 04:40:11;;;;;;;2.17;2.10;;;17.00;66.70;;;;;;5097737;27;44026;-74
2022/12/05 04:42:39;;;;;;;2.00;2.00;;;17.00;66.60;;;;;;5106851;27;43522;-73
2022/12/05 04:45:08;;;;;;;1.83;1.83;;;17.00;66.60;;;;;;5107749;27;43413;-71
2022/12/05 04:47:39;;;;;;;2.40;2.40;;;17.00;66.60;;;;;;5102085;27;43565;-72
2022/12/05 04:50:10;;;;;;;1.90;1.90;;;17.00;66.60;;;;;;5103740;27;44511;-72
2022/12/05 04:52:38;;;;;;;2.20;2.20;;;17.00;66.70;;;;;;5104445;27;43455;-71
2022/12/05 04:55:07;;;;;;;2.53;2.43;;;17.00;66.90;;;;;;5110834;27;43480;-72
2022/12/05 04:57:37;;;;;;;2.60;2.50;;;17.00;66.80;;;;;;5104496;27;43961;-70
2022/12/05 05:00:07;;;;;;;2.43;2.27;;;17.00;66.80;;;;;;5105368;27;43902;-71
2022/12/05 05:02:37;;;;;;;3.17;2.97;;;17.00;66.80;;;;;;5108731;27;44050;-70
2022/12/05 05:05:09;;;;;;;3.93;3.07;;;17.00;66.80;;;;;;5100026;27;43511;-70
2022/12/05 05:07:44;;;;;;;3.33;2.97;;;17.00;66.80;;;;;;5115086;27;43927;-72
2022/12/05 05:10:15;;;;;;;4.57;3.80;;;16.90;66.90;;;;;;5101812;27;43940;-70
2022/12/05 05:12:43;;;;;;;10.80;4.20;;;17.00;67.20;;;;;;5097418;27;43481;-71
2022/12/05 05:15:11;;;;;;;7.93;5.50;;;17.00;67.00;;;;;;5105400;27;44355;-70
2022/12/05 05:17:39;;;;;;;8.23;4.70;;;17.10;66.60;;;;;;5104376;27;43520;-70
2022/12/05 05:20:26;;;;;;;12.00;4.90;;;17.20;66.20;;;;;;5098579;27;45688;-72
2022/12/05 05:22:54;;;;;;;7.07;4.90;;;17.20;66.20;;;;;;5105584;27;43412;-71
2022/12/05 05:25:22;;;;;;;12.37;5.90;;;17.20;66.30;;;;;;5107013;27;43428;-70
2022/12/05 05:27:50;;;;;;;13.60;6.50;;;17.10;66.40;;;;;;5104598;27;43421;-71
2022/12/05 05:30:19;;;;;;;12.43;5.87;;;17.10;66.20;;;;;;5103634;27;43909;-71
2022/12/05 05:32:47;;;;;;;14.17;6.47;;;17.10;67.10;;;;;;5103962;27;43423;-71
2022/12/05 05:35:16;;;;;;;15.50;6.57;;;17.10;66.50;;;;;;5099152;27;43400;-70
2022/12/05 05:37:44;;;;;;;11.50;6.47;;;17.00;66.40;;;;;;5103151;27;43513;-71
2022/12/05 05:40:12;;;;;;;12.70;6.17;;;17.00;66.50;;;;;;5101600;27;43910;-73
2022/12/05 05:42:42;;;;;;;12.40;6.07;;;17.00;66.90;;;;;;5099459;27;43452;-70
2022/12/05 05:45:11;;;;;;;13.87;6.50;;;17.00;66.60;;;;;;5101186;27;43899;-69
2022/12/05 05:47:39;;;;;;;12.30;6.93;;;17.00;66.70;;;;;;5103850;27;44145;-71
2022/12/05 05:50:08;;;;;;;9.67;6.17;;;16.90;66.60;;;;;;5100860;27;43558;-71
2022/12/05 05:52:37;;;;;;;10.30;6.47;;;17.00;66.80;;;;;;5110210;27;43468;-70
2022/12/05 05:55:06;;;;;;;12.97;6.87;;;16.90;66.40;;;;;;5096235;27;43462;-71
2022/12/05 05:57:34;;;;;;;12.07;6.33;;;16.90;66.30;;;;;;5106844;27;43445;-71
2022/12/05 06:00:03;;;;;;;12.90;6.73;;;16.90;66.50;;;;;;5104404;27;45870;-71
2022/12/05 06:02:32;;;;;;;16.50;7.40;;;17.00;66.50;;;;;;5109099;27;43465;-71
2022/12/05 06:05:00;;;;;;;14.10;7.60;;;17.10;66.20;;;;;;5100400;27;43902;-71
2022/12/05 06:07:28;;;;;;;14.23;6.80;;;17.10;65.70;;;;;;5110458;27;43985;-70
2022/12/05 06:09:58;;;;;;;13.10;6.73;;;17.20;65.80;;;;;;5107059;27;43868;-71
2022/12/05 06:12:26;;;;;;;10.53;6.30;;;17.10;65.70;;;;;;5098499;27;43449;-71
2022/12/05 06:14:54;;;;;;;12.70;6.50;;;17.10;66.20;;;;;;5102013;27;43477;-71
2022/12/05 06:17:22;;;;;;;9.00;5.90;;;17.10;65.90;;;;;;5100915;27;43519;-72
2022/12/05 06:19:50;;;;;;;11.47;6.83;;;17.10;66.00;;;;;;5109316;27;43865;-70
2022/12/05 06:22:18;;;;;;;12.20;6.43;;;17.10;65.90;;;;;;5104112;27;43474;-71
2022/12/05 06:24:46;;;;;;;10.17;6.23;;;17.10;66.10;;;;;;5102093;27;43795;-70
2022/12/05 06:27:15;;;;;;;12.07;6.53;;;17.10;66.20;;;;;;5112496;27;43406;-71
2022/12/05 06:29:43;;;;;;;11.30;6.57;;;17.00;66.20;;;;;;5092720;27;45137;-71
2022/12/05 06:32:11;;;;;;;12.13;6.77;;;17.00;66.20;;;;;;5103704;27;43474;-71
2022/12/05 06:34:39;;;;;;;12.47;6.80;;;17.00;66.20;;;;;;5109243;27;43421;-71
2022/12/05 06:37:07;;;;;;;8.90;5.63;;;17.00;66.40;;;;;;5113754;27;43549;-71
2022/12/05 06:39:35;;;;;;;9.03;5.60;;;17.00;66.30;;;;;;5109811;27;45538;-70
2022/12/05 06:42:03;;;;;;;11.60;5.70;;;17.00;66.30;;;;;;5101094;27;44350;-72
2022/12/05 06:44:32;;;;;;;9.57;6.10;;;17.00;66.40;;;;;;5110504;27;43871;-71
2022/12/05 06:47:00;;;;;;;8.70;5.60;;;17.00;66.50;;;;;;5104132;27;43636;-72
2022/12/05 06:49:31;;;;;;;9.73;6.23;;;17.00;66.40;;;;;;5100321;27;46246;-69
2022/12/05 06:52:04;;;;;;;8.57;5.90;;;17.00;66.40;;;;;;5102330;27;43872;-71
2022/12/05 06:54:32;;;;;;;8.60;6.00;;;17.00;66.40;;;;;;5101287;27;44164;-71
2022/12/05 06:57:00;;;;;;;9.70;6.30;;;17.00;66.40;;;;;;5099958;27;43507;-73
2022/12/05 06:59:28;;;;;;;9.60;6.23;;;17.00;66.50;;;;;;5098606;27;43773;-73
2022/12/05 07:01:57;;;;;;;9.00;5.67;;;17.00;67.00;;;;;;5110382;27;43552;-71
2022/12/05 07:04:25;;;;;;;9.77;6.10;;;17.00;66.80;;;;;;5098950;27;43523;-73
2022/12/05 07:06:53;;;;;;;9.80;5.77;;;17.10;66.60;;;;;;5103799;27;43930;-71
2022/12/05 07:09:44;;;;;;;10.60;6.30;;;17.20;66.10;;;;;;5104557;27;44772;-71
2022/12/05 07:12:11;;;;;;;8.83;5.90;;;17.20;65.70;;;;;;5101246;27;43473;-70
2022/12/05 07:14:39;;;;;;;7.90;5.60;;;17.20;65.80;;;;;;5120565;27;43415;-71
2022/12/05 07:17:16;;;;;;;7.40;5.60;;;17.20;66.00;;;;;;5111418;27;43889;-73
2022/12/05 07:19:44;;;;;;;9.53;5.67;;;17.20;65.90;;;;;;5116164;27;44538;-71
2022/12/05 07:22:12;;;;;;;6.17;5.43;;;17.10;65.90;;;;;;5109052;27;45132;-71
2022/12/05 07:24:43;;;;;;;7.07;4.93;;;17.10;66.00;;;;;;5108397;27;43486;-74
2022/12/05 07:27:11;;;;;;;8.23;5.50;;;17.10;66.00;;;;;;5114014;27;43417;-70
2022/12/05 07:29:39;;;;;;;7.60;5.73;;;17.10;66.10;;;;;;5101317;27;43944;-71
2022/12/05 07:32:07;;;;;;;8.47;5.67;;;17.00;66.30;;;;;;5108190;27;44011;-71
2022/12/05 07:34:37;;;;;;;7.90;5.57;;;17.00;66.30;;;;;;5114905;27;43428;-71
2022/12/05 07:37:05;;;;;;;7.20;5.80;;;17.00;66.40;;;;;;5108402;27;44278;-72
2022/12/05 07:39:33;;;;;;;6.87;5.10;;;17.00;66.40;;;;;;5096843;27;43927;-71
2022/12/05 07:42:01;;;;;;;7.47;5.50;;;17.00;66.60;;;;;;5101092;27;43372;-70
2022/12/05 07:44:29;;;;;;;8.97;5.53;;;17.00;66.70;;;;;;5105584;27;44103;-72
2022/12/05 07:46:57;;;;;;;6.43;5.53;;;17.00;66.70;;;;;;5111452;27;43457;-70
2022/12/05 07:49:25;;;;;;;11.43;5.57;;;16.90;66.80;;;;;;5106064;27;43624;-71
2022/12/05 07:51:55;;;;;;;8.17;5.60;;;17.00;66.80;;;;;;5108802;27;44615;-71
2022/12/05 07:54:23;;;;;;;9.47;6.60;;;17.10;66.60;;;;;;5109585;27;43465;-72
2022/12/05 07:56:51;;;;;;;8.67;6.20;;;17.20;66.50;;;;;;5099652;27;43623;-72
2022/12/05 07:59:19;;;;;;;7.63;6.13;;;17.10;66.30;;;;;;5102406;27;43896;-71
2022/12/05 08:01:47;;;;;;;6.80;5.57;;;17.20;66.10;;;;;;5104642;27;43497;-71
2022/12/05 08:04:15;;;;;;;7.10;6.33;;;17.10;66.00;;;;;;5111486;27;43493;-71
2022/12/05 08:06:43;;;;;;;7.63;6.07;;;17.10;66.00;;;;;;5116166;27;43556;-70
2022/12/05 08:09:12;;;;;;;8.40;5.90;;;17.10;66.50;;;;;;5097565;27;43954;-71
2022/12/05 08:11:40;;;;;;;6.77;5.57;;;17.10;66.90;;;;;;5097365;27;43603;-71
2022/12/05 08:14:12;;;;;;;5.80;5.27;;;17.10;66.80;;;;;;5101165;27;43459;-71
2022/12/05 08:16:40;;;;;;;6.33;5.73;;;17.10;66.90;;;;;;5100410;27;44102;-72
2022/12/05 08:19:11;;;;;;;6.40;5.67;;;17.10;67.30;;;;;;5097716;27;43601;-70
2022/12/05 08:21:39;;;;;;;7.77;6.43;;;17.10;67.10;;;;;;5103006;27;43533;-69
2022/12/05 08:24:08;;;;;;;8.00;5.70;;;17.10;67.00;;;;;;5108013;27;44254;-70
2022/12/05 08:26:38;;;;;;;7.73;5.60;;;17.20;66.70;;;;;;5100960;27;43515;-70
2022/12/05 08:29:06;;;;;;;6.63;5.40;;;17.20;66.40;;;;;;5097348;27;43887;-72
2022/12/05 08:31:36;;;;;;;6.57;5.50;;;17.30;66.70;;;;;;5104513;27;45258;-70
2022/12/05 08:34:04;;;;;;;6.80;5.37;;;17.20;66.70;;;;;;5113139;27;43457;-70
2022/12/05 08:36:32;;;;;;;6.10;5.50;;;17.20;66.90;;;;;;5121510;27;43420;-72
2022/12/05 08:39:01;;;;;;;6.00;5.27;;;17.20;66.90;;;;;;5097372;27;46099;-74
2022/12/05 08:41:29;;;;;;;9.73;5.57;;;17.20;67.20;;;;;;5099643;27;43568;-71
2022/12/05 08:44:00;;;;;;;5.30;4.90;;;17.20;67.10;;;;;;5097475;27;44219;-70
2022/12/05 08:46:28;;;;;;;9.43;5.53;;;17.10;67.40;;;;;;5104999;27;43766;-70
2022/12/05 08:48:56;;;;;;;6.23;5.63;;;17.10;67.90;;;;;;5100986;27;45718;-70
2022/12/05 08:51:24;;;;;;;10.73;6.03;;;17.10;68.30;;;;;;5100281;27;43494;-70
2022/12/05 08:53:52;;;;;;;7.30;5.83;;;17.10;68.40;;;;;;5109336;27;43473;-71
2022/12/05 08:56:21;;;;;;;6.90;6.07;;;17.10;69.20;;;;;;5103929;27;43464;-71
2022/12/05 08:58:54;;;;;;;7.83;5.83;;;17.10;70.00;;;;;;5096861;27;43602;-71
2022/12/05 09:01:31;;;;;;;10.77;5.97;;;17.10;70.00;;;;;;5099207;27;44300;-71
2022/12/05 09:04:00;;;;;;;8.07;5.77;;;17.10;70.10;;;;;;5109267;27;43997;-70
2022/12/05 09:06:28;;;;;;;6.83;5.67;;;17.00;70.00;;;;;;5102014;27;43555;-71
2022/12/05 09:08:57;;;;;;;6.33;5.53;;;17.00;69.60;;;;;;5103757;27;45415;-72
2022/12/05 09:11:26;;;;;;;8.03;6.27;;;17.00;68.80;;;;;;5101489;27;43451;-70
2022/12/05 09:13:55;;;;;;;6.83;5.87;;;17.10;68.50;;;;;;5102038;27;43466;-70
2022/12/05 09:16:24;;;;;;;7.50;6.23;;;17.20;68.80;;;;;;5095892;27;43601;-71
2022/12/05 09:18:54;;;;;;;6.23;5.73;;;17.20;69.20;;;;;;5101458;27;43841;-71
2022/12/05 09:21:23;;;;;;;6.23;5.70;;;17.20;69.40;;;;;;5095995;27;43779;-69
2022/12/05 09:23:51;;;;;;;8.30;5.63;;;17.20;69.30;;;;;;5098372;27;44052;-71
2022/12/05 09:26:20;;;;;;;9.00;5.97;;;17.10;68.90;;;;;;5108435;27;43465;-72
2022/12/05 09:28:48;;;;;;;5.30;4.90;;;17.10;69.40;;;;;;5101708;27;43640;-71
2022/12/05 09:31:17;;;;;;;5.60;5.00;;;17.10;69.40;;;;;;5111168;27;43544;-70
2022/12/05 09:33:45;;;;;;;6.97;5.60;;;17.10;69.50;;;;;;5120702;27;43400;-72
2022/12/05 09:36:15;;;;;;;6.03;5.40;;;17.10;69.50;;;;;;5104013;27;43489;-73
2022/12/05 09:38:43;;;;;;;6.27;5.37;;;17.00;69.30;;;;;;5100180;27;44036;-70
2022/12/05 09:41:20;;;;;;;6.40;5.80;;;17.00;69.00;;;;;;5097391;27;44116;-73
2022/12/05 09:43:49;;;;;;;7.13;5.50;;;17.10;69.20;;;;;;5106111;27;43394;-70
2022/12/05 09:46:20;;;;;;;6.20;5.70;;;17.10;69.40;;;;;;5104361;27;43798;-70
2022/12/05 09:48:48;;;;;;;6.47;5.87;;;17.10;69.50;;;;;;5100140;27;45913;-71
2022/12/05 09:51:17;;;;;;;6.30;5.63;;;17.10;69.60;;;;;;5096011;27;43454;-73
2022/12/05 09:53:45;;;;;;;5.97;5.40;;;17.10;69.80;;;;;;5107191;27;43509;-71
2022/12/05 09:56:15;;;;;;;7.40;5.63;;;17.10;69.50;;;;;;5100161;27;44582;-70
2022/12/05 09:58:44;;;;;;;7.97;6.80;;;17.10;69.10;;;;;;5109819;27;44019;-70
2022/12/05 10:01:23;;;;;;;7.43;6.63;;;17.20;67.70;;;;;;5098276;27;44034;-70
2022/12/05 10:04:01;;;;;;;6.47;5.87;;;17.30;67.90;;;;;;5105273;27;43880;-71
2022/12/05 10:06:33;;;;;;;6.57;5.97;;;17.30;68.30;;;;;;5106314;27;44240;-72
2022/12/05 10:09:26;;;;;;;7.77;7.00;;;17.30;68.10;;;;;;5105101;27;43852;-71
2022/12/05 10:11:57;;;;;;;6.77;6.20;;;17.20;67.30;;;;;;5087952;27;43507;-72
2022/12/05 10:14:32;;;;;;;7.53;6.70;;;17.20;67.40;;;;;;5104798;27;44029;-71
2022/12/05 10:17:03;;;;;;;7.47;6.80;;;17.20;67.30;;;;;;5103093;27;43499;-72
2022/12/05 10:19:33;;;;;;;6.77;6.33;;;17.20;67.00;;;;;;5105213;27;44253;-72
2022/12/05 10:22:04;;;;;;;7.47;6.87;;;17.20;66.80;;;;;;5102196;27;43436;-70
2022/12/05 10:24:33;;;;;;;7.10;6.40;;;17.10;66.90;;;;;;5104934;27;43395;-71
2022/12/05 10:27:04;;;;;;;6.47;6.07;;;17.10;67.10;;;;;;5108661;27;43538;-70
2022/12/05 10:29:33;;;;;;;6.33;5.83;;;17.10;67.30;;;;;;5106057;27;43665;-69
2022/12/05 10:32:04;;;;;;;6.90;6.30;;;17.10;67.50;;;;;;5107757;27;45322;-71
2022/12/05 10:34:34;;;;;;;23.70;7.07;;;17.10;67.60;;;;;;5110239;27;43544;-73
2022/12/05 10:37:09;;;;;;;14.90;6.67;;;17.10;67.70;;;;;;5102762;27;43541;-71
2022/12/05 10:39:37;;;;;;;7.63;5.87;;;17.10;67.90;;;;;;5101983;27;44296;-72
2022/12/05 10:42:05;;;;;;;8.77;6.40;;;17.00;67.80;;;;;;5101309;27;43384;-70
2022/12/05 10:44:33;;;;;;;13.30;7.00;;;17.00;68.00;;;;;;5105462;27;44172;-71
2022/12/05 10:47:01;;;;;;;7.60;5.73;;;17.10;68.00;;;;;;5105383;27;44081;-72
2022/12/05 10:49:29;;;;;;;20.80;10.30;;;17.10;67.50;;;;;;5099588;27;45747;-71
2022/12/05 10:51:58;;;;;;;21.67;11.50;;;17.20;67.80;;;;;;5105106;27;44707;-70
2022/12/05 10:54:29;;;;;;;14.10;9.60;;;17.20;68.00;;;;;;5111829;27;43869;-69
2022/12/05 10:56:57;;;;;;;17.40;9.50;;;17.20;68.00;;;;;;5102554;27;43689;-71
2022/12/05 10:59:26;;;;;;;15.13;9.30;;;17.10;67.90;;;;;;5106180;27;44950;-70
2022/12/05 11:01:55;;;;;;;14.63;8.80;;;17.10;67.90;;;;;;5111113;27;43946;-70
2022/12/05 11:04:26;;;;;;;11.80;8.37;;;17.10;68.20;;;;;;5103688;27;43536;-72
2022/12/05 11:06:58;;;;;;;14.73;9.00;;;17.10;68.30;;;;;;5100525;27;43897;-73
2022/12/05 11:09:28;;;;;;;14.17;8.57;;;17.10;68.20;;;;;;5101007;27;43955;-71
2022/12/05 11:12:21;;;;;;;14.33;8.57;;;17.10;68.20;;;;;;5115027;27;43492;-70
2022/12/05 11:15:05;;;;;;;12.83;8.43;;;17.10;68.30;;;;;;5095332;27;43441;-71
2022/12/05 11:17:34;;;;;;;11.20;7.87;;;17.10;68.30;;;;;;5109131;27;43418;-71
2022/12/05 11:20:04;;;;;;;12.57;8.37;;;17.10;68.40;;;;;;5096497;27;43599;-73
2022/12/05 11:22:33;;;;;;;11.20;7.87;;;17.10;69.10;;;;;;5110651;27;43484;-70
2022/12/05 11:25:20;;;;;;;9.43;7.33;;;17.10;68.40;;;;;;5101982;27;43448;-72
2022/12/05 11:27:48;;;;;;;10.57;7.63;;;17.00;68.30;;;;;;5103328;27;43608;-71
2022/12/05 11:30:18;;;;;;;10.70;6.93;;;17.00;68.40;;;;;;5113820;27;43573;-69
2022/12/05 11:32:46;;;;;;;7.73;6.97;;;17.10;68.50;;;;;;5108677;27;44889;-70
2022/12/05 11:35:23;;;;;;;12.60;7.67;;;17.20;68.30;;;;;;5100989;27;44152;-70
2022/12/05 11:37:53;;;;;;;10.00;7.20;;;17.30;67.90;;;;;;5115625;27;43955;-69
2022/12/05 11:40:27;;;;;;;7.27;6.53;;;17.30;68.00;;;;;;5121012;27;43836;-71
2022/12/05 11:43:09;;;;;;;8.97;6.50;;;17.30;67.70;;;;;;5101802;27;43941;-70
2022/12/05 11:45:44;;;;;;;7.50;6.47;;;17.30;67.70;;;;;;5098408;27;43865;-70
2022/12/05 11:48:22;;;;;;;9.77;6.50;;;17.30;67.70;;;;;;5101299;27;43529;-71
2022/12/05 11:50:52;;;;;;;9.33;5.87;;;17.30;67.70;;;;;;5108967;27;43935;-71
2022/12/05 11:53:35;;;;;;;6.57;5.97;;;17.30;67.80;;;;;;5101434;27;44414;-71
2022/12/05 11:56:08;;;;;;;6.40;5.80;;;17.30;67.90;;;;;;5108814;27;43995;-70
2022/12/05 11:58:52;;;;;;;6.57;5.97;;;17.20;68.00;;;;;;5103131;27;43563;-70
2022/12/05 12:01:23;;;;;;;6.43;5.83;;;17.20;68.10;;;;;;5098798;27;45743;-70
2022/12/05 12:04:15;;;;;;;8.20;6.13;;;17.20;68.00;;;;;;5102492;27;44009;-70
2022/12/05 12:06:47;;;;;;;7.63;5.50;;;17.20;68.20;;;;;;5091126;27;44010;-69
2022/12/05 12:09:26;;;;;;;6.30;5.70;;;17.20;68.50;;;;;;5093774;27;43941;-70
2022/12/05 12:11:58;;;;;;;6.87;5.33;;;17.20;68.40;;;;;;5105483;27;44022;-69
2022/12/05 12:14:28;;;;;;;5.83;5.27;;;17.10;68.00;;;;;;5108104;27;43419;-70
2022/12/05 12:17:01;;;;;;;5.50;4.70;;;17.10;67.80;;;;;;5106443;27;43495;-74
2022/12/05 12:19:43;;;;;;;5.30;4.90;;;17.10;67.50;;;;;;5100049;27;43972;-70
2022/12/05 12:22:20;;;;;;;7.83;5.07;;;17.10;67.90;;;;;;5101077;27;43854;-71
2022/12/05 12:25:01;;;;;;;11.00;5.07;;;17.10;68.30;;;;;;5099950;27;43428;-69
2022/12/05 12:27:37;;;;;;;7.53;5.00;;;17.10;68.90;;;;;;5111730;27;43488;-71
2022/12/05 12:30:09;;;;;;;8.43;5.17;;;17.10;69.00;;;;;;5102129;27;43417;-71
2022/12/05 12:32:40;;;;;;;4.87;4.53;;;17.10;69.40;;;;;;5101219;27;43593;-71
2022/12/05 12:35:30;;;;;;;6.23;4.53;;;17.10;68.90;;;;;;5108109;27;43399;-70
2022/12/05 12:38:17;;;;;;;5.90;4.60;;;17.10;68.60;;;;;;5102643;27;43592;-70
2022/12/05 12:40:48;;;;;;;6.93;4.40;;;17.20;68.20;;;;;;5095560;27;43480;-74
2022/12/05 12:43:24;;;;;;;7.37;4.67;;;17.30;68.70;;;;;;5096737;27;43970;-70
2022/12/05 12:46:16;;;;;;;4.57;4.00;;;17.20;68.90;;;;;;5102589;27;44577;-70
2022/12/05 12:48:53;;;;;;;4.80;4.07;;;17.20;69.20;;;;;;5100005;27;43837;-71
2022/12/05 12:51:21;;;;;;;5.93;3.80;;;17.20;68.70;;;;;;5101120;27;43505;-71
2022/12/05 12:54:04;;;;;;;4.43;4.13;;;17.20;69.20;;;;;;5100904;27;43847;-73
2022/12/05 12:56:37;;;;;;;5.10;3.60;;;17.10;69.50;;;;;;5100189;27;43509;-70
2022/12/05 12:59:14;;;;;;;6.10;3.53;;;17.10;69.50;;;;;;5100235;27;43519;-71
2022/12/05 13:01:44;;;;;;;4.27;3.87;;;17.10;69.60;;;;;;5098518;27;43540;-70
2022/12/05 13:04:14;;;;;;;4.07;3.77;;;17.10;69.80;;;;;;5101757;27;44051;-72
2022/12/05 13:06:44;;;;;;;3.90;3.60;;;17.10;69.50;;;;;;5100006;27;44252;-71
2022/12/05 13:09:14;;;;;;;3.73;3.47;;;17.00;69.60;;;;;;5107897;27;43806;-70